Time;durP1;ratioP1;P1;durP2;ratioP2;P2;SDS_P1;SDS_P2;PMS_P1;PMS_P2;Temp;Humidity;BMP_temperature;BMP_pressure;BME280_temperature;BME280_humidity;BME280_pressure;Samples;Min_cycle;Max_cycle;Signal;HPM_P1;HPM_P2
2022/05/21 00:01:45;;;;;;;0.30;0.25;;;18.40;95.30;;;17.38;71.08;99989.22;10244517;28;96495;-86
2022/05/21 00:06:48;;;;;;;0.35;0.35;;;18.50;94.80;;;17.36;71.08;99980.56;10254460;28;96611;-85
2022/05/21 00:11:51;;;;;;;0.80;0.80;;;18.50;95.00;;;17.33;71.28;99985.53;10260505;28;96934;-86
2022/05/21 00:16:54;;;;;;;0.75;0.65;;;18.50;95.20;;;17.27;71.61;99975.66;10256290;28;96533;-86
2022/05/21 00:21:57;;;;;;;1.13;0.52;;;18.40;96.10;;;17.22;71.78;99959.41;10256118;28;96785;-86
2022/05/21 00:27:00;;;;;;;0.85;0.73;;;18.40;96.90;;;17.21;71.66;99963.09;10267555;28;96730;-86
2022/05/21 00:32:05;;;;;;;0.70;0.70;;;18.30;97.70;;;17.11;72.13;99955.56;10269506;28;96526;-86
2022/05/21 00:37:07;;;;;;;0.38;0.20;;;18.30;97.40;;;17.09;72.07;99939.66;10240503;28;96590;-86
2022/05/21 00:42:10;;;;;;;0.28;0.28;;;18.20;98.30;;;17.03;72.86;99951.28;10262834;28;98285;-86
2022/05/21 00:47:13;;;;;;;1.25;0.60;;;18.20;98.00;;;16.98;72.93;99972.56;10241925;28;98281;-86
2022/05/21 00:52:22;;;;;;;1.23;0.65;;;18.20;98.60;;;16.93;73.28;99960.81;10256115;28;100129;-86
2022/05/21 00:57:37;;;;;;;0.40;0.40;;;18.10;99.90;;;16.92;73.58;99967.22;10289565;28;97609;-87
2022/05/21 01:02:55;;;;;;;0.63;0.63;;;18.10;99.70;;;16.91;73.44;99969.06;10247223;28;96959;-87
2022/05/21 01:08:01;;;;;;;0.50;0.50;;;18.10;99.60;;;16.93;73.54;99968.88;10267527;28;96667;-86
2022/05/21 01:13:14;;;;;;;0.63;0.57;;;18.10;99.30;;;16.94;73.70;99987.44;10258328;28;96443;-86
2022/05/21 01:18:17;;;;;;;0.50;0.45;;;18.10;99.90;;;16.89;73.49;99978.38;10251134;28;98091;-87
2022/05/21 01:23:20;;;;;;;0.68;0.60;;;18.10;99.90;;;16.85;73.87;99967.25;10230780;28;98365;-86
2022/05/21 01:28:27;;;;;;;0.90;0.70;;;18.10;99.90;;;16.80;74.12;99978.63;10249807;28;97554;-86
2022/05/21 01:33:37;;;;;;;0.52;0.50;;;18.00;99.90;;;16.78;74.26;99969.97;10253975;28;97511;-86
2022/05/21 01:38:42;;;;;;;0.85;0.52;;;17.90;99.90;;;16.73;74.53;99961.75;10245760;28;96880;-86
2022/05/21 01:49:07;;;;;;;1.17;0.70;;;17.90;99.90;;;16.72;75.00;100003.00;10245635;28;97460;-86
2022/05/21 01:54:10;;;;;;;0.70;0.45;;;17.90;99.90;;;16.72;75.32;100021.78;10266714;28;98267;-86
2022/05/21 01:59:13;;;;;;;1.08;0.70;;;17.80;99.90;;;16.72;75.50;100063.91;10267542;28;96586;-86
2022/05/21 02:04:18;;;;;;;0.75;0.70;;;17.80;99.90;;;16.78;75.81;100061.19;10250818;28;97216;-86
2022/05/21 02:09:21;;;;;;;1.45;0.80;;;17.90;99.90;;;16.91;75.52;100086.34;10238023;28;98103;-87
2022/05/21 02:14:24;;;;;;;1.23;0.70;;;18.00;99.90;;;17.10;75.54;100099.72;10268826;28;96743;-87
2022/05/21 02:19:27;;;;;;;0.52;0.47;;;18.10;99.90;;;17.57;75.25;100115.56;10252028;28;96872;-86
2022/05/21 02:24:30;;;;;;;1.13;0.60;;;18.40;99.90;;;18.18;73.62;100115.00;10252704;28;96710;-86
2022/05/21 02:29:33;;;;;;;0.40;0.38;;;18.90;99.90;;;18.96;70.17;100123.38;10220662;28;96615;-84
2022/05/21 02:34:36;;;;;;;0.88;0.77;;;19.60;99.90;;;19.80;66.63;100123.56;10231880;28;97941;-84
2022/05/21 02:39:39;;;;;;;1.05;0.77;;;20.50;99.20;;;20.37;64.79;100133.84;10242248;28;97994;-85
2022/05/21 02:44:43;;;;;;;1.48;0.90;;;21.10;97.80;;;20.54;65.58;100122.16;10232607;28;96794;-87
2022/05/21 02:49:46;;;;;;;2.45;0.47;;;21.30;98.40;;;20.42;67.19;100134.81;10265402;28;98446;-86
2022/05/21 02:54:49;;;;;;;0.52;0.30;;;21.30;99.70;;;20.13;69.12;100135.72;10223730;28;96683;-84
2022/05/21 02:59:52;;;;;;;0.77;0.40;;;21.00;99.90;;;19.65;71.61;100134.75;10275276;28;96754;-84
2022/05/21 03:04:55;;;;;;;0.90;0.47;;;20.60;99.90;;;19.22;74.35;100146.47;10219397;28;96690;-83
2022/05/21 03:15:36;;;;;;;0.90;0.55;;;19.90;99.90;;;18.63;77.37;100147.06;10211357;28;97474;-83
2022/05/21 03:20:40;;;;;;;0.73;0.50;;;19.60;99.90;;;18.45;78.91;100151.38;10233563;28;96664;-83
2022/05/21 03:25:43;;;;;;;0.70;0.32;;;19.30;99.90;;;18.34;79.99;100153.97;10277430;28;96629;-83
2022/05/21 03:30:47;;;;;;;1.15;0.55;;;19.20;99.90;;;18.29;80.79;100129.56;10252345;28;97483;-83
2022/05/21 03:35:51;;;;;;;0.57;0.50;;;19.20;99.90;;;18.29;81.27;100130.44;10250743;28;96629;-84
2022/05/21 03:40:54;;;;;;;1.10;0.68;;;19.30;99.90;;;18.28;81.50;100134.13;10248236;28;97033;-83
2022/05/21 03:45:59;;;;;;;0.30;0.30;;;19.30;99.90;;;18.19;82.32;100076.31;10269218;28;96629;-83
2022/05/21 03:51:03;;;;;;;0.10;0.10;;;19.30;99.90;;;18.10;83.00;100078.44;10275498;28;96616;-82
2022/05/21 03:56:07;;;;;;;0.85;0.68;;;19.20;99.90;;;17.98;83.94;100077.50;10252579;28;97005;-82
2022/05/21 04:01:15;;;;;;;0.60;0.45;;;19.10;99.90;;;17.93;84.21;100061.19;10263140;28;96597;-82
2022/05/21 04:06:19;;;;;;;0.10;0.10;;;19.00;99.90;;;17.91;84.68;100042.59;10248444;28;96630;-81
2022/05/21 04:11:22;;;;;;;0.60;0.40;;;19.00;99.90;;;17.88;85.45;100013.50;10265188;28;96861;-81
2022/05/21 04:16:25;;;;;;;0.60;0.50;;;18.90;99.90;;;17.76;86.10;100009.88;10234851;28;96675;-81
2022/05/21 04:21:28;;;;;;;0.50;0.40;;;18.90;99.90;;;17.70;86.79;100017.97;10256458;28;96649;-81
2022/05/21 04:26:31;;;;;;;0.50;0.20;;;18.70;99.90;;;17.65;87.17;100021.28;10269580;28;96671;-81
2022/05/21 04:31:34;;;;;;;0.32;0.32;;;18.70;99.90;;;17.59;87.57;100017.63;10252329;28;96816;-82
2022/05/21 04:36:38;;;;;;;1.67;1.00;;;18.70;99.90;;;17.57;88.31;100008.97;10275019;28;96520;-82
2022/05/21 04:41:41;;;;;;;1.23;0.90;;;18.70;99.90;;;17.58;88.68;100013.28;10278595;28;96913;-82
2022/05/21 04:46:44;;;;;;;0.60;0.22;;;18.70;99.90;;;17.56;88.86;100007.28;10261346;28;96527;-82
2022/05/21 04:51:47;;;;;;;0.20;0.20;;;18.70;99.90;;;17.63;89.46;100015.28;10253443;28;96519;-82
2022/05/21 04:56:50;;;;;;;2.08;0.98;;;18.70;99.90;;;17.67;90.37;100020.03;10251899;28;96900;-82
2022/05/21 05:01:53;;;;;;;1.17;0.47;;;18.80;99.90;;;17.73;90.40;100028.28;10252078;28;96600;-82
2022/05/21 05:06:56;;;;;;;0.55;0.30;;;18.90;99.90;;;17.77;90.21;100051.81;10249659;28;98063;-83
2022/05/21 05:11:59;;;;;;;0.00;0.00;;;18.90;99.90;;;17.85;89.88;100064.16;10254029;28;98314;-82
2022/05/21 05:17:03;;;;;;;0.20;0.20;;;18.90;99.90;;;18.04;87.62;100073.09;10251104;28;96607;-82
2022/05/21 05:22:09;;;;;;;0.38;0.38;;;19.00;99.90;;;18.32;84.37;100086.13;10268997;28;96542;-82
2022/05/21 05:27:12;;;;;;;1.27;0.43;;;19.30;99.90;;;18.62;81.69;100086.22;10262764;28;96625;-83
2022/05/21 05:32:16;;;;;;;0.30;0.17;;;19.50;99.90;;;18.95;78.60;100100.19;10261526;28;96594;-85
2022/05/21 05:37:19;;;;;;;0.10;0.10;;;19.80;99.90;;;19.24;75.65;100087.78;10247443;28;96853;-85
2022/05/21 05:42:21;;;;;;;0.10;0.05;;;20.10;99.90;;;19.42;74.82;100069.94;10251995;28;96836;-84
2022/05/21 05:47:27;;;;;;;0.30;0.20;;;20.30;99.90;;;19.45;74.58;100074.88;10248808;28;96826;-84
2022/05/21 05:52:31;;;;;;;0.38;0.38;;;20.30;99.90;;;19.39;75.08;100081.19;10245244;28;96586;-87
2022/05/21 05:57:34;;;;;;;0.38;0.38;;;20.30;99.90;;;19.30;75.86;100067.19;10268447;28;97330;-83
2022/05/21 06:08:03;;;;;;;0.47;0.25;;;20.10;99.90;;;19.11;76.58;100068.28;10254265;28;96642;-90
2022/05/21 06:13:07;;;;;;;0.00;0.00;;;20.00;99.90;;;19.01;76.53;100078.78;10249100;28;96870;-89
2022/05/21 06:18:19;;;;;;;0.95;0.40;;;19.90;99.90;;;18.86;77.23;100071.91;10264908;28;97047;-87
2022/05/21 06:23:22;;;;;;;0.43;0.17;;;19.80;99.90;;;18.67;78.84;100067.59;10246249;28;96556;-88
2022/05/21 06:28:28;;;;;;;0.08;0.03;;;19.60;99.90;;;18.45;80.48;100067.97;10267108;28;96716;-86
2022/05/21 06:33:32;;;;;;;0.13;0.08;;;19.40;99.90;;;18.19;82.59;100077.13;10235912;28;97164;-89
2022/05/21 06:38:36;;;;;;;1.20;0.40;;;19.20;99.90;;;17.91;84.73;100050.66;10226577;28;98178;-87
2022/05/21 06:43:39;;;;;;;0.98;0.50;;;18.80;99.90;;;17.69;86.32;100076.22;10272424;28;96601;-82
2022/05/21 06:48:42;;;;;;;0.45;0.40;;;18.60;99.90;;;17.54;88.01;100047.00;10233936;28;96645;-81
2022/05/21 06:53:45;;;;;;;0.90;0.68;;;18.50;99.90;;;17.51;89.28;100052.81;10244409;28;97488;-82
2022/05/21 06:58:50;;;;;;;0.88;0.28;;;18.40;99.90;;;17.57;90.22;100061.84;10257227;28;96693;-84
2022/05/21 07:03:53;;;;;;;0.50;0.40;;;18.40;99.90;;;17.67;90.42;100068.38;10261976;28;96794;-83
2022/05/21 07:08:56;;;;;;;1.50;0.65;;;18.60;99.90;;;17.80;90.06;100072.88;10245207;28;97176;-82
2022/05/21 07:14:00;;;;;;;1.23;0.70;;;18.70;99.90;;;17.95;89.91;100079.81;10236348;28;96808;-83
2022/05/21 07:19:07;;;;;;;1.00;0.50;;;18.80;99.90;;;18.14;89.56;100090.41;10245824;28;97329;-83
2022/05/21 07:24:10;;;;;;;2.15;0.57;;;19.00;99.90;;;18.39;89.19;100078.78;10220599;28;96841;-80
2022/05/21 07:29:13;;;;;;;0.45;0.38;;;19.20;99.90;;;18.68;88.48;100079.97;10246981;28;97255;-84
2022/05/21 07:34:16;;;;;;;0.60;0.55;;;19.50;99.90;;;19.02;86.18;100083.13;10222060;28;98622;-84
2022/05/21 07:39:18;;;;;;;0.32;0.32;;;19.80;99.90;;;19.37;83.86;100078.72;10244141;28;98535;-84
2022/05/21 07:44:21;;;;;;;0.47;0.40;;;20.10;99.90;;;19.72;83.06;100078.03;10225429;28;97127;-83
2022/05/21 07:49:25;;;;;;;0.43;0.30;;;20.50;99.90;;;19.97;80.24;100067.91;10237928;28;96963;-86
2022/05/21 07:54:28;;;;;;;0.22;0.20;;;20.70;99.90;;;20.17;78.80;100062.19;10262727;28;96607;-87
2022/05/21 07:59:31;;;;;;;0.28;0.20;;;20.90;99.90;;;20.29;78.11;100060.31;10241091;28;97905;-83
2022/05/21 08:04:35;;;;;;;0.47;0.43;;;21.10;99.90;;;20.37;77.55;100067.22;10251449;28;96613;-82
2022/05/21 08:09:39;;;;;;;1.15;0.55;;;21.10;99.90;;;20.34;76.42;100061.47;10255726;28;96619;-83
2022/05/21 08:14:42;;;;;;;0.82;0.68;;;21.20;99.90;;;20.27;76.71;100061.56;10274492;28;96692;-85
2022/05/21 08:19:46;;;;;;;1.10;0.65;;;21.10;99.90;;;20.24;76.85;100059.34;10282193;28;97078;-81
2022/05/21 08:30:11;;;;;;;1.20;0.57;;;21.10;99.90;;;20.24;76.53;100075.53;10244070;28;97008;-85
2022/05/21 08:35:14;;;;;;;1.55;0.70;;;21.10;99.90;;;20.42;75.67;100069.22;10240528;28;97258;-88
2022/05/21 08:40:17;;;;;;;1.63;0.40;;;21.20;99.90;;;20.65;75.04;100071.91;10231238;28;98354;-88
2022/05/21 08:45:24;;;;;;;0.60;0.35;;;21.40;99.90;;;20.89;73.14;100067.28;10267604;28;97545;-89
2022/05/21 08:50:34;;;;;;;0.50;0.50;;;21.60;99.90;;;21.23;73.93;100056.59;10233383;28;98129;-87
2022/05/21 08:55:44;;;;;;;0.97;0.57;;;21.90;99.90;;;21.67;71.96;100070.44;10236912;28;97947;-90
2022/05/21 09:00:49;;;;;;;1.02;0.45;;;22.40;99.90;;;21.98;71.40;100072.56;10253225;28;97432;-90
2022/05/21 09:06:03;;;;;;;1.05;0.35;;;22.70;99.90;;;22.29;69.23;100095.56;10253995;28;96617;-86
2022/05/21 09:11:21;;;;;;;0.95;0.50;;;23.00;99.90;;;22.36;67.38;100114.34;10255786;28;97421;-87
2022/05/21 09:21:56;;;;;;;1.45;0.50;;;23.00;99.90;;;22.04;67.53;100117.59;10254924;28;97250;-91
2022/05/21 09:26:59;;;;;;;1.50;1.02;;;22.90;99.90;;;22.04;65.62;100097.84;10222492;28;96642;-90
2022/05/21 09:32:32;;;;;;;0.82;0.68;;;22.90;99.90;;;22.19;65.60;100103.53;10268251;28;96743;-90
2022/05/21 09:37:35;;;;;;;0.88;0.77;;;23.00;99.90;;;22.49;65.98;100092.34;10267617;28;96750;-88
2022/05/21 09:48:06;;;;;;;0.93;0.70;;;23.50;99.90;;;23.12;62.59;100098.34;10251780;28;96516;-85
2022/05/21 09:53:40;;;;;;;0.85;0.68;;;23.80;98.50;;;23.44;61.33;100088.41;10260183;28;96627;-85
2022/05/21 09:58:45;;;;;;;0.95;0.38;;;24.20;98.20;;;23.81;57.62;100095.03;10266733;28;96653;-84
2022/05/21 10:03:52;;;;;;;1.45;0.73;;;24.50;93.60;;;;;;10256909;28;96625;-85
2022/05/21 10:14:46;;;;;;;0.68;0.40;;;25.00;84.60;;;24.55;50.77;100089.66;10223951;28;97531;-83
2022/05/21 10:20:08;;;;;;;0.82;0.40;;;25.30;80.80;;;24.83;49.47;100083.84;10217188;28;96558;-83
2022/05/21 10:25:21;;;;;;;0.98;0.57;;;25.60;77.10;;;24.95;47.31;100097.22;10252685;28;96674;-81
2022/05/21 10:30:49;;;;;;;1.35;0.57;;;25.80;75.00;;;24.96;45.84;100098.03;10267708;28;96614;-90
2022/05/21 10:36:19;;;;;;;0.17;0.17;;;25.80;70.10;;;25.03;46.43;100091.25;10246787;28;97152;-85
2022/05/21 10:41:43;;;;;;;0.30;0.20;;;25.80;71.20;;;25.02;44.30;100097.78;10267322;28;96552;-83
2022/05/21 10:47:03;;;;;;;0.30;0.20;;;25.80;66.40;;;24.91;44.30;100103.44;10252657;28;96491;-83
2022/05/21 10:52:28;;;;;;;0.20;0.10;;;25.70;66.60;;;25.00;43.43;100099.13;10235855;28;96644;-89
2022/05/21 10:58:04;;;;;;;0.22;0.20;;;25.80;65.10;;;24.94;43.36;100092.03;10243035;28;96791;-86
2022/05/21 11:03:18;;;;;;;0.85;0.28;;;25.80;63.40;;;24.83;44.30;100080.31;10246087;28;97170;-84
2022/05/21 11:09:07;;;;;;;1.13;0.52;;;25.70;65.80;;;24.82;42.53;100079.47;10252166;28;96493;-91
2022/05/21 11:14:18;;;;;;;0.52;0.20;;;25.70;63.40;;;24.99;42.48;100062.97;10229226;28;97135;-85
2022/05/21 11:19:50;;;;;;;0.10;0.10;;;25.80;62.70;;;25.15;40.45;100055.72;10250831;28;96984;-87
2022/05/21 11:25:18;;;;;;;0.17;0.10;;;26.00;59.70;;;25.27;38.94;100061.72;10253416;28;96784;-84
2022/05/21 11:30:22;;;;;;;0.30;0.30;;;26.10;57.60;;;25.38;37.60;100059.03;10269705;28;97524;-84
2022/05/21 11:41:29;;;;;;;0.45;0.40;;;26.30;54.10;;;25.77;37.91;100060.19;10267568;28;96664;-87
2022/05/21 11:46:38;;;;;;;0.30;0.17;;;26.50;56.80;;;25.88;37.64;100037.34;10228647;28;96690;-84
2022/05/21 11:51:41;;;;;;;0.10;0.10;;;26.70;55.90;;;26.00;37.16;100058.03;10255503;28;96591;-85
2022/05/21 11:57:06;;;;;;;0.52;0.30;;;26.80;54.80;;;25.92;36.58;100058.59;10219149;28;96657;-86
2022/05/21 12:02:20;;;;;;;0.20;0.10;;;26.80;54.90;;;25.88;38.17;100053.66;10239561;28;96545;-83
2022/05/21 12:07:41;;;;;;;0.82;0.63;;;26.80;55.80;;;25.94;38.22;100042.78;10257095;28;96657;-85
2022/05/21 12:13:22;;;;;;;1.02;0.52;;;26.90;55.40;;;25.96;39.24;100038.69;10257227;28;96586;-87
2022/05/21 12:18:41;;;;;;;0.40;0.25;;;27.00;57.40;;;25.87;38.84;100041.16;10150274;28;97043;-84
2022/05/21 12:23:51;;;;;;;1.45;0.52;;;27.00;56.20;;;26.10;39.84;100049.84;10254978;28;96572;-84
2022/05/21 12:29:01;;;;;;;1.13;0.40;;;27.20;57.80;;;26.24;39.43;100040.03;10253722;28;96734;-84
2022/05/21 12:34:36;;;;;;;0.60;0.40;;;27.30;57.60;;;26.37;40.31;100044.88;10242331;28;96910;-82
2022/05/21 12:40:01;;;;;;;0.80;0.30;;;27.30;58.60;;;26.31;39.29;100035.09;10255890;28;96689;-83
2022/05/21 12:45:05;;;;;;;0.55;0.28;;;27.30;56.60;;;26.11;39.51;100032.44;10255318;28;96574;-86
2022/05/21 12:50:20;;;;;;;1.20;0.55;;;27.00;57.00;;;25.81;39.99;100034.06;10271079;28;96618;-84
2022/05/21 12:55:33;;;;;;;0.65;0.38;;;26.70;57.60;;;25.56;41.68;100031.31;10269843;28;96647;-83
2022/05/21 13:00:37;;;;;;;0.65;0.20;;;26.40;59.50;;;25.88;42.73;100023.72;10254959;28;96494;-83
2022/05/21 13:05:55;;;;;;;0.38;0.28;;;26.60;61.40;;;26.29;41.38;100009.25;10254031;28;96536;-83
2022/05/21 13:11:24;;;;;;;1.05;0.65;;;27.00;59.00;;;26.44;37.08;100035.66;10253685;28;96955;-82
2022/05/21 13:16:33;;;;;;;0.47;0.30;;;27.20;54.40;;;26.64;37.28;100027.41;10282072;28;96690;-83
2022/05/21 13:22:20;;;;;;;0.52;0.45;;;27.50;54.80;;;26.29;37.14;100015.50;10270684;28;97251;-83
2022/05/21 13:27:24;;;;;;;0.20;0.20;;;27.30;54.40;;;25.99;36.96;100021.00;10252040;28;96737;-83
2022/05/21 13:32:32;;;;;;;0.38;0.20;;;26.90;53.10;;;25.91;37.53;100013.38;10219215;28;96633;-86
2022/05/21 13:37:44;;;;;;;0.30;0.20;;;26.80;54.00;;;25.83;36.54;100022.91;10268275;28;96751;-87
2022/05/21 13:42:52;;;;;;;0.10;0.10;;;26.80;53.20;;;26.12;36.86;100004.91;10268662;28;96566;-88
2022/05/21 13:48:11;;;;;;;0.52;0.30;;;26.90;53.80;;;26.41;34.39;100013.31;10227151;28;96507;-83
2022/05/21 13:53:24;;;;;;;0.30;0.30;;;27.20;50.40;;;26.73;33.37;100012.09;10216013;28;96619;-83
2022/05/21 13:58:34;;;;;;;0.20;0.10;;;27.50;49.60;;;27.04;32.07;100007.31;10266731;28;96921;-83
2022/05/21 14:03:46;;;;;;;0.20;0.13;;;27.90;47.60;;;27.18;29.43;99992.00;10252485;28;96546;-88
2022/05/21 14:09:00;;;;;;;0.38;0.22;;;28.10;45.20;;;27.35;29.77;99990.78;10235124;28;96570;-88
2022/05/21 14:14:12;;;;;;;0.20;0.20;;;28.30;45.40;;;27.50;27.44;99984.41;10265567;28;96613;-83
2022/05/21 14:19:18;;;;;;;0.28;0.10;;;28.50;43.10;;;27.58;27.10;99978.31;10236604;28;96526;-83
2022/05/21 14:24:28;;;;;;;0.10;0.10;;;28.60;42.20;;;27.67;26.17;99968.44;10253318;28;96617;-83
2022/05/21 14:29:51;;;;;;;1.88;0.22;;;28.60;41.70;;;27.77;25.79;99979.31;10267040;28;96732;-84
2022/05/21 14:35:32;;;;;;;0.17;0.17;;;28.80;41.70;;;27.74;25.74;99974.41;10249750;28;96754;-85
2022/05/21 14:40:57;;;;;;;0.35;0.10;;;28.70;40.50;;;27.80;26.67;99967.78;10165951;28;96640;-83
2022/05/21 14:46:00;;;;;;;0.10;0.10;;;28.70;41.40;;;27.98;26.40;99958.88;10218010;28;98205;-84
2022/05/21 14:56:31;;;;;;;0.10;0.10;;;29.20;41.30;;;28.19;26.55;99939.56;10256880;28;96743;-85
2022/05/21 15:01:34;;;;;;;0.00;0.00;;;29.10;41.80;;;28.12;26.30;99930.88;10267471;28;96861;-82
2022/05/21 15:06:40;;;;;;;0.57;0.43;;;29.00;42.00;;;28.09;26.84;99940.47;10250072;28;96781;-83
2022/05/21 15:11:48;;;;;;;0.10;0.10;;;28.80;42.40;;;28.12;27.69;99928.94;10235180;28;96491;-84
2022/05/21 15:16:51;;;;;;;0.20;0.20;;;28.80;43.60;;;28.08;27.79;99927.91;10251335;28;96519;-83
2022/05/21 15:21:57;;;;;;;0.17;0.10;;;28.70;43.30;;;28.05;28.55;99919.47;10250931;28;96558;-83
2022/05/21 15:27:00;;;;;;;0.00;0.00;;;28.70;44.50;;;28.13;28.48;99919.66;10249381;28;96617;-83
2022/05/21 15:32:06;;;;;;;0.30;0.10;;;28.70;44.30;;;28.06;27.69;99912.91;10264372;28;96616;-83
2022/05/21 15:37:09;;;;;;;0.00;0.00;;;28.70;42.70;;;27.90;28.65;99904.09;10234625;28;96397;-84
2022/05/21 15:42:12;;;;;;;0.10;0.10;;;28.50;44.50;;;27.82;28.40;99905.50;10249838;28;96579;-83
2022/05/21 15:47:16;;;;;;;0.28;0.10;;;28.50;44.30;;;27.61;29.01;99893.16;10250276;28;96550;-84
2022/05/21 15:52:30;;;;;;;0.40;0.20;;;28.30;44.40;;;27.40;29.78;99896.06;10247465;28;96683;-85
2022/05/21 15:57:33;;;;;;;0.17;0.13;;;28.20;45.20;;;27.23;30.44;99890.25;10264963;28;96617;-85
2022/05/21 16:02:37;;;;;;;0.43;0.20;;;28.10;46.20;;;26.93;30.27;99883.06;10250228;28;96580;-84
2022/05/21 16:07:42;;;;;;;0.10;0.08;;;27.80;45.60;;;26.75;31.39;99884.56;10252266;28;96801;-83
2022/05/21 16:12:45;;;;;;;0.30;0.30;;;27.60;46.50;;;26.71;31.62;99891.66;10253311;28;98112;-83
2022/05/21 16:17:48;;;;;;;0.32;0.10;;;27.50;47.00;;;26.67;31.22;99875.03;10239520;28;96635;-84
2022/05/21 16:22:52;;;;;;;0.10;0.10;;;27.50;46.80;;;26.69;31.30;99869.34;10271205;28;97087;-85
2022/05/21 16:28:01;;;;;;;0.60;0.30;;;27.50;45.90;;;26.65;31.24;99879.16;10256004;28;96773;-85
2022/05/21 16:33:05;;;;;;;0.30;0.20;;;27.50;46.10;;;26.53;30.93;99875.97;10271908;28;96401;-85
2022/05/21 16:38:08;;;;;;;0.55;0.20;;;27.40;45.90;;;26.45;30.90;99887.44;10239440;28;96577;-84
2022/05/21 16:43:11;;;;;;;0.35;0.30;;;27.30;46.00;;;26.32;30.86;99875.19;10255403;28;96652;-83
2022/05/21 16:48:16;;;;;;;0.15;0.15;;;27.20;45.70;;;26.17;31.57;99887.00;10238069;28;97754;-83
2022/05/21 16:53:19;;;;;;;0.52;0.20;;;27.00;46.40;;;25.85;31.16;99888.19;10270677;28;96600;-84
2022/05/21 16:58:24;;;;;;;0.30;0.20;;;26.80;45.80;;;25.51;31.64;99887.13;10254407;28;97863;-83
2022/05/21 17:03:27;;;;;;;0.10;0.10;;;26.50;46.40;;;25.12;32.35;99874.06;10267981;28;96975;-82
2022/05/21 17:08:30;;;;;;;0.80;0.75;;;26.10;47.10;;;24.78;32.90;99880.00;10260070;28;97156;-83
2022/05/21 17:13:33;;;;;;;0.20;0.20;;;25.80;47.40;;;24.52;33.17;99891.88;10269426;28;96525;-82
2022/05/21 17:18:35;;;;;;;0.20;0.10;;;25.50;47.60;;;24.26;34.14;99891.78;10251919;28;96575;-83
2022/05/21 17:23:40;;;;;;;0.40;0.20;;;25.30;48.60;;;24.06;33.67;99894.41;10257065;28;97892;-83
2022/05/21 17:34:06;;;;;;;0.10;0.10;;;24.80;47.40;;;23.69;33.69;99900.72;10267279;28;97434;-81
2022/05/21 17:39:09;;;;;;;0.10;0.00;;;24.70;47.90;;;23.49;33.95;99897.81;10253487;28;97567;-80
2022/05/21 17:44:13;;;;;;;0.13;0.10;;;24.50;47.90;;;23.30;34.35;99904.72;10251541;28;96772;-80
2022/05/21 17:49:16;;;;;;;0.30;0.20;;;24.40;48.50;;;23.11;34.73;99921.38;10255912;28;96592;-80
2022/05/21 17:54:19;;;;;;;0.32;0.10;;;24.20;49.30;;;22.88;35.80;99914.38;10251889;28;98295;-81
2022/05/21 17:59:22;;;;;;;0.50;0.10;;;24.00;50.30;;;22.60;35.09;99917.28;10222043;28;96653;-81
2022/05/21 18:04:25;;;;;;;0.93;0.20;;;23.80;49.30;;;22.36;35.73;99912.13;10231099;28;98030;-82
2022/05/21 18:09:28;;;;;;;0.65;0.50;;;23.50;49.70;;;22.09;35.72;99914.78;10258456;28;98164;-81
2022/05/21 18:14:31;;;;;;;1.15;0.70;;;23.30;49.40;;;21.85;36.58;99926.84;10257009;28;96701;-80
2022/05/21 18:19:34;;;;;;;0.90;0.30;;;23.00;50.10;;;21.62;37.17;99917.03;10224102;28;97988;-83
2022/05/21 18:24:37;;;;;;;0.73;0.40;;;22.80;50.40;;;21.37;37.09;99918.28;10235169;28;98590;-80
2022/05/21 18:29:40;;;;;;;0.28;0.28;;;22.60;50.20;;;21.11;37.42;99933.22;10252571;28;97389;-81
2022/05/21 18:34:43;;;;;;;0.45;0.28;;;22.30;50.80;;;20.87;37.51;99945.19;10247348;28;98038;-81
2022/05/21 18:39:46;;;;;;;0.20;0.20;;;22.10;50.80;;;20.66;37.54;99943.16;10267234;28;97846;-81
2022/05/21 18:44:49;;;;;;;0.10;0.10;;;21.90;50.60;;;20.49;37.59;99938.50;10230901;28;96578;-80
2022/05/21 18:49:52;;;;;;;0.40;0.20;;;21.70;51.00;;;20.36;37.95;99943.31;10252427;28;98315;-80
2022/05/21 18:54:55;;;;;;;0.30;0.17;;;21.60;51.10;;;20.22;38.51;99938.19;10221568;28;97123;-81
2022/05/21 18:59:58;;;;;;;0.10;0.10;;;21.40;51.20;;;20.05;37.76;99943.47;10240739;28;98909;-80
2022/05/21 19:05:01;;;;;;;0.10;0.10;;;21.30;50.80;;;19.93;37.78;99949.94;10250798;28;97160;-81
2022/05/21 19:10:05;;;;;;;0.20;0.20;;;21.10;51.50;;;19.80;38.11;99947.50;10241680;28;98454;-81
2022/05/21 19:15:09;;;;;;;0.65;0.55;;;21.00;51.70;;;19.67;38.00;99953.91;10245985;28;97340;-81
2022/05/21 19:20:14;;;;;;;0.17;0.10;;;20.90;50.70;;;19.56;38.03;99963.59;10247219;28;96714;-81
2022/05/21 19:25:17;;;;;;;0.20;0.20;;;20.70;51.00;;;19.45;38.37;99981.41;10250095;28;96565;-81
2022/05/21 19:30:20;;;;;;;0.38;0.28;;;20.60;51.50;;;19.38;38.39;99977.16;10251184;28;96619;-80
2022/05/21 19:35:23;;;;;;;0.73;0.52;;;20.60;51.50;;;19.27;38.35;99997.63;10245872;28;96630;-81
2022/05/21 19:45:48;;;;;;;0.25;0.10;;;20.40;51.60;;;19.12;38.77;100007.97;10260659;28;96871;-80
2022/05/21 19:50:51;;;;;;;0.20;0.10;;;20.30;52.00;;;19.04;38.80;100008.31;10257704;28;96954;-80
2022/05/21 19:55:54;;;;;;;0.20;0.20;;;20.20;52.00;;;18.89;39.79;100016.78;10239197;28;97251;-80
2022/05/21 20:00:57;;;;;;;1.15;0.77;;;20.10;52.70;;;18.77;39.65;100018.59;10267127;28;96671;-80
2022/05/21 20:06:01;;;;;;;0.35;0.35;;;19.90;52.80;;;18.67;40.12;100019.13;10253891;28;97208;-80
2022/05/21 20:11:06;;;;;;;0.25;0.20;;;19.90;53.20;;;18.59;40.37;100028.31;10255088;28;97454;-80
2022/05/21 20:16:09;;;;;;;0.00;0.00;;;19.70;53.60;;;18.50;40.80;100029.63;10252764;28;98454;-80
2022/05/21 20:21:13;;;;;;;0.10;0.10;;;19.70;53.90;;;18.42;40.85;100032.63;10255874;28;96618;-80
2022/05/21 20:26:20;;;;;;;0.85;0.28;;;19.60;53.90;;;18.36;41.31;100033.53;10254815;28;96882;-80
2022/05/21 20:31:23;;;;;;;0.10;0.10;;;19.50;54.40;;;18.30;41.83;100046.00;10267539;28;96933;-80
2022/05/21 20:36:26;;;;;;;0.20;0.15;;;19.50;54.90;;;18.25;41.98;100043.13;10254428;28;96946;-80
2022/05/21 20:41:29;;;;;;;0.00;0.00;;;19.40;55.60;;;18.23;42.55;100044.38;10243800;28;96791;-80
2022/05/21 20:46:33;;;;;;;0.80;0.30;;;19.40;55.80;;;18.16;43.13;100042.59;10272039;28;96713;-80
2022/05/21 20:51:36;;;;;;;0.20;0.20;;;19.30;55.80;;;18.12;43.82;100041.41;10271376;28;96564;-81
2022/05/21 20:56:39;;;;;;;0.20;0.20;;;19.30;56.40;;;18.08;44.25;100045.56;10240757;28;97496;-80
2022/05/21 21:01:42;;;;;;;0.35;0.30;;;19.20;57.10;;;18.01;44.26;100052.06;10249974;28;97378;-80
2022/05/21 21:06:45;;;;;;;0.20;0.17;;;19.20;57.70;;;17.82;45.49;100051.19;10237501;28;96947;-80
2022/05/21 21:11:48;;;;;;;1.00;0.40;;;19.10;58.30;;;17.70;46.25;100045.66;10251358;28;97291;-80
2022/05/21 21:16:52;;;;;;;0.28;0.28;;;18.90;59.40;;;17.59;47.13;100046.34;10247808;28;97519;-80
2022/05/21 21:21:56;;;;;;;0.00;0.00;;;18.80;60.70;;;17.42;47.89;100042.53;10237676;28;96643;-80
2022/05/21 21:26:59;;;;;;;0.22;0.10;;;18.60;61.40;;;17.23;48.14;100045.13;10247386;28;97442;-80
2022/05/21 21:32:02;;;;;;;0.35;0.20;;;18.40;61.90;;;17.06;48.53;100038.59;10228842;28;96961;-80
2022/05/21 21:37:05;;;;;;;1.00;0.75;;;18.20;61.70;;;16.97;48.83;100040.72;10215191;28;96840;-80
2022/05/21 21:42:08;;;;;;;0.10;0.10;;;18.10;62.60;;;16.84;49.39;100046.94;10235541;28;97410;-81
2022/05/21 21:47:12;;;;;;;0.15;0.15;;;18.10;62.40;;;16.76;50.03;100049.88;10251420;28;96501;-81
2022/05/21 21:52:15;;;;;;;0.70;0.30;;;17.90;63.50;;;16.66;50.70;100060.16;10221796;28;96630;-80
2022/05/21 21:57:19;;;;;;;0.50;0.30;;;17.90;64.50;;;16.53;51.40;100060.22;10239778;28;97152;-80
2022/05/21 22:02:22;;;;;;;0.10;0.10;;;17.70;64.90;;;16.42;52.23;100066.22;10252835;28;97349;-80
2022/05/21 22:07:45;;;;;;;0.63;0.22;;;17.60;65.10;;;16.31;52.65;100065.84;10262218;28;96777;-80